createdAt,value
2023-03-07T00:00:12.499Z,65.91
2023-03-07T00:01:09.056Z,66.16
2023-03-07T00:02:05.732Z,66.16
2023-03-07T00:03:02.335Z,66.60
2023-03-07T00:03:59.767Z,66.24
2023-03-07T00:04:56.361Z,66.36
2023-03-07T00:06:07.850Z,65.88
2023-03-07T00:07:04.438Z,65.54
2023-03-07T00:08:01.129Z,66.25
2023-03-07T00:09:00.350Z,65.73
2023-03-07T00:09:57.034Z,66.27
2023-03-07T00:10:53.678Z,65.89
2023-03-07T00:11:50.789Z,66.04
2023-03-07T00:12:47.437Z,65.73
2023-03-07T00:13:44.414Z,65.68
2023-03-07T00:14:41.012Z,65.91
2023-03-07T00:15:39.029Z,66.56
2023-03-07T00:16:35.572Z,65.83
2023-03-07T00:17:32.138Z,65.90
2023-03-07T00:18:28.995Z,65.60
2023-03-07T00:19:25.601Z,65.93
2023-03-07T00:20:22.598Z,65.91
2023-03-07T00:21:22.114Z,66.13
2023-03-07T00:22:18.676Z,66.44
2023-03-07T00:23:15.326Z,66.25
2023-03-07T00:24:11.961Z,66.15
2023-03-07T00:25:09.426Z,66.19
2023-03-07T00:26:14.453Z,65.72
2023-03-07T00:27:11.050Z,65.04
2023-03-07T00:28:07.638Z,64.91
2023-03-07T00:29:05.211Z,64.83
2023-03-07T00:30:03.089Z,64.79
2023-03-07T00:31:04.688Z,65.02
2023-03-07T00:32:01.423Z,65.72
2023-03-07T00:32:58.011Z,65.37
2023-03-07T00:33:54.654Z,65.67
2023-03-07T00:34:51.255Z,65.05
2023-03-07T00:36:18.415Z,65.27
2023-03-07T00:37:15.409Z,64.85
2023-03-07T00:38:12.009Z,65.02
2023-03-07T00:39:08.720Z,64.73
2023-03-07T00:40:07.488Z,65.34
2023-03-07T00:41:07.263Z,65.43
2023-03-07T00:42:03.915Z,65.24
2023-03-07T00:43:00.558Z,65.17
2023-03-07T00:43:57.196Z,65.25
2023-03-07T00:44:53.760Z,65.58
2023-03-07T00:45:50.366Z,66.19
2023-03-07T00:46:46.986Z,65.78
2023-03-07T00:47:43.618Z,65.85
2023-03-07T00:48:40.821Z,65.43
2023-03-07T00:49:37.466Z,65.53
2023-03-07T00:50:34.256Z,65.39
2023-03-07T00:51:30.912Z,65.67
2023-03-07T00:52:27.459Z,65.99
2023-03-07T00:53:24.924Z,65.94
2023-03-07T00:54:21.493Z,65.83
2023-03-07T00:55:18.136Z,65.11
2023-03-07T00:56:18.045Z,65.33
2023-03-07T00:57:14.681Z,65.40
2023-03-07T00:58:11.302Z,65.88
2023-03-07T00:59:08.686Z,65.67
2023-03-07T01:00:06.048Z,66.04
2023-03-07T01:01:05.252Z,65.32
2023-03-07T01:02:01.829Z,65.20
2023-03-07T01:02:59.055Z,65.00
2023-03-07T01:03:56.335Z,64.56
2023-03-07T01:04:52.987Z,64.83
2023-03-07T01:05:50.280Z,65.36
2023-03-07T01:06:46.858Z,65.80
2023-03-07T01:07:43.466Z,65.75
2023-03-07T01:08:40.409Z,64.75
2023-03-07T01:09:37.046Z,64.93
2023-03-07T01:10:34.045Z,65.03
2023-03-07T01:11:31.655Z,65.59
2023-03-07T01:12:28.207Z,65.53
2023-03-07T01:13:24.834Z,65.35
2023-03-07T01:14:21.650Z,65.60
2023-03-07T01:15:18.488Z,65.46
2023-03-07T01:16:15.096Z,65.09
2023-03-07T01:17:11.661Z,64.87
2023-03-07T01:18:09.541Z,64.96
2023-03-07T01:19:09.767Z,65.12
2023-03-07T01:20:07.178Z,65.39
2023-03-07T01:21:24.257Z,65.57
2023-03-07T01:22:20.803Z,64.64
2023-03-07T01:23:17.420Z,65.37
2023-03-07T01:24:15.156Z,65.42
2023-03-07T01:25:14.496Z,65.54
2023-03-07T01:26:25.772Z,65.99
2023-03-07T01:27:22.350Z,65.76
2023-03-07T01:28:19.013Z,65.45
2023-03-07T01:29:15.598Z,65.52
2023-03-07T01:30:12.442Z,65.49
2023-03-07T01:31:09.280Z,65.44
2023-03-07T01:32:06.038Z,65.09
2023-03-07T01:33:03.070Z,64.96
2023-03-07T01:34:02.229Z,65.29
2023-03-07T01:34:58.892Z,65.52
2023-03-07T01:35:55.583Z,65.25
2023-03-07T01:36:52.347Z,65.54
2023-03-07T01:37:53.793Z,65.64
2023-03-07T01:38:50.408Z,65.67
2023-03-07T01:39:46.978Z,65.93
2023-03-07T01:40:43.535Z,65.80
2023-03-07T01:41:40.953Z,65.67
2023-03-07T01:42:37.533Z,65.95
2023-03-07T01:43:34.707Z,65.92
2023-03-07T01:44:31.698Z,66.26
2023-03-07T01:45:34.157Z,65.97
2023-03-07T01:46:36.795Z,66.37
2023-03-07T01:47:33.400Z,66.02
2023-03-07T01:48:29.973Z,65.99
2023-03-07T01:49:53.142Z,66.31
2023-03-07T01:50:49.928Z,65.93
2023-03-07T01:51:56.073Z,66.45
2023-03-07T01:52:57.041Z,66.91
2023-03-07T01:53:53.937Z,66.59
2023-03-07T01:54:54.626Z,66.49
2023-03-07T01:55:51.295Z,67.03
2023-03-07T01:56:48.279Z,66.78
2023-03-07T01:57:47.228Z,67.05
2023-03-07T01:58:45.484Z,67.54
2023-03-07T01:59:49.320Z,67.11
2023-03-07T02:00:46.001Z,67.36
2023-03-07T02:01:42.796Z,67.68
2023-03-07T02:02:43.876Z,67.63
2023-03-07T02:03:50.255Z,67.87
2023-03-07T02:04:55.056Z,67.69
2023-03-07T02:05:55.519Z,67.70
2023-03-07T02:06:52.180Z,68.20
2023-03-07T02:07:50.920Z,68.00
2023-03-07T02:08:49.972Z,67.64
2023-03-07T02:09:49.822Z,68.21
2023-03-07T02:10:47.024Z,68.37
2023-03-07T02:11:45.061Z,68.07
2023-03-07T02:12:42.263Z,68.34
2023-03-07T02:13:39.202Z,68.04
2023-03-07T02:14:35.913Z,67.97
2023-03-07T02:15:34.348Z,67.76
2023-03-07T02:16:31.469Z,68.78
2023-03-07T02:17:28.152Z,68.73
2023-03-07T02:18:30.180Z,68.21
2023-03-07T02:19:54.888Z,68.68
2023-03-07T02:20:59.375Z,68.49
2023-03-07T02:22:17.709Z,68.69
2023-03-07T02:23:41.743Z,69.00
2023-03-07T02:25:06.125Z,68.11
2023-03-07T02:26:16.782Z,68.48
2023-03-07T02:27:14.138Z,68.14
2023-03-07T02:28:13.684Z,68.19
2023-03-07T02:29:12.037Z,68.31
2023-03-07T02:30:09.449Z,68.57
2023-03-07T02:31:07.477Z,68.67
2023-03-07T02:32:04.331Z,68.39
2023-03-07T02:33:01.009Z,68.52
2023-03-07T02:33:57.626Z,68.82
2023-03-07T02:34:54.225Z,68.80
2023-03-07T02:35:58.240Z,68.75
2023-03-07T02:36:58.934Z,68.74
2023-03-07T02:37:59.799Z,69.14
2023-03-07T02:38:57.872Z,69.65
2023-03-07T02:39:56.524Z,69.46
2023-03-07T02:40:55.248Z,69.56
2023-03-07T02:41:55.229Z,69.48
2023-03-07T02:42:55.326Z,69.37
2023-03-07T02:43:51.986Z,69.54
2023-03-07T02:44:57.113Z,69.65
2023-03-07T02:45:53.759Z,70.14
2023-03-07T02:46:50.402Z,70.25
2023-03-07T02:47:47.407Z,69.78
2023-03-07T02:48:43.969Z,70.07
2023-03-07T02:49:40.539Z,69.80
2023-03-07T02:50:37.168Z,70.04
2023-03-07T02:51:33.791Z,70.00
2023-03-07T02:52:30.686Z,70.08
2023-03-07T02:53:27.284Z,70.22
2023-03-07T02:54:25.250Z,70.28
2023-03-07T02:55:21.870Z,70.02
2023-03-07T02:56:18.503Z,69.87
2023-03-07T02:57:15.681Z,70.28
2023-03-07T02:58:12.274Z,70.10
2023-03-07T02:59:09.024Z,69.86
2023-03-07T03:00:10.295Z,69.60
2023-03-07T03:01:07.192Z,69.66
2023-03-07T03:02:04.091Z,69.99
2023-03-07T03:03:00.764Z,69.83
2023-03-07T03:03:57.452Z,69.86
2023-03-07T03:04:54.065Z,70.09
2023-03-07T03:05:50.737Z,69.63
2023-03-07T03:06:47.360Z,69.98
2023-03-07T03:07:43.992Z,70.07
2023-03-07T03:08:40.579Z,69.85
2023-03-07T03:09:37.338Z,70.20
2023-03-07T03:10:33.943Z,70.50
2023-03-07T03:11:30.661Z,69.65
2023-03-07T03:12:27.278Z,69.74
2023-03-07T03:13:23.966Z,70.13
2023-03-07T03:14:20.633Z,70.33
2023-03-07T03:15:17.263Z,69.80
2023-03-07T03:16:13.965Z,69.66
2023-03-07T03:17:10.593Z,69.68
2023-03-07T03:18:07.159Z,69.54
2023-03-07T03:19:03.878Z,69.58
2023-03-07T03:20:00.520Z,69.68
2023-03-07T03:20:57.395Z,69.64
2023-03-07T03:21:53.976Z,70.26
2023-03-07T03:22:52.301Z,70.00
2023-03-07T03:23:48.899Z,69.78
2023-03-07T03:24:45.465Z,69.91
2023-03-07T03:25:42.064Z,70.03
2023-03-07T03:26:38.809Z,70.11
2023-03-07T03:27:36.602Z,70.30
2023-03-07T03:28:35.209Z,69.40
2023-03-07T03:29:31.831Z,69.77
2023-03-07T03:30:32.378Z,69.71
2023-03-07T03:31:30.429Z,70.15
2023-03-07T03:32:27.063Z,70.15
2023-03-07T03:33:23.653Z,70.21
2023-03-07T03:34:20.388Z,69.79
2023-03-07T03:35:17.141Z,69.89
2023-03-07T03:36:16.827Z,70.13
2023-03-07T03:37:13.469Z,70.16
2023-03-07T03:38:10.083Z,69.96
2023-03-07T03:39:11.022Z,69.32
2023-03-07T03:40:14.443Z,69.49
2023-03-07T03:41:13.776Z,69.55
2023-03-07T03:42:10.338Z,69.84
2023-03-07T03:43:06.866Z,69.84
2023-03-07T03:44:04.149Z,69.65
2023-03-07T03:45:00.784Z,69.81
2023-03-07T03:45:58.042Z,69.88
2023-03-07T03:46:55.822Z,69.87
2023-03-07T03:47:52.504Z,70.17
2023-03-07T03:48:55.736Z,70.15
2023-03-07T03:49:52.290Z,69.60
2023-03-07T03:50:48.907Z,69.94
2023-03-07T03:51:45.569Z,69.73
2023-03-07T03:52:45.149Z,70.32
2023-03-07T03:53:41.875Z,69.66
2023-03-07T03:54:38.622Z,69.34
2023-03-07T03:55:35.268Z,68.99
2023-03-07T03:56:31.927Z,69.12
2023-03-07T03:57:28.517Z,69.19
2023-03-07T03:58:25.055Z,69.90
2023-03-07T03:59:22.386Z,69.69
2023-03-07T04:00:21.095Z,69.77
2023-03-07T04:01:18.810Z,69.55
2023-03-07T04:02:15.562Z,70.07
2023-03-07T04:03:12.175Z,69.35
2023-03-07T04:04:08.795Z,69.21
2023-03-07T04:05:05.724Z,69.67
2023-03-07T04:06:07.415Z,69.47
2023-03-07T04:07:04.818Z,69.37
2023-03-07T04:08:01.496Z,69.42
2023-03-07T04:08:58.467Z,69.31
2023-03-07T04:09:55.045Z,69.15
2023-03-07T04:10:51.671Z,69.62
2023-03-07T04:11:48.342Z,69.67
2023-03-07T04:12:46.164Z,69.49
2023-03-07T04:13:43.015Z,69.15
2023-03-07T04:14:39.603Z,69.03
2023-03-07T04:15:36.432Z,68.86
2023-03-07T04:16:33.037Z,68.90
2023-03-07T04:17:29.699Z,68.37
2023-03-07T04:18:26.438Z,68.52
2023-03-07T04:19:23.125Z,68.89
2023-03-07T04:20:19.909Z,69.08
2023-03-07T04:21:17.843Z,68.92
2023-03-07T04:22:14.436Z,69.84
2023-03-07T04:23:11.509Z,69.23
2023-03-07T04:24:08.771Z,68.87
2023-03-07T04:25:05.681Z,68.93
2023-03-07T04:26:05.011Z,69.14
2023-03-07T04:27:01.632Z,69.06
2023-03-07T04:27:58.210Z,69.72
2023-03-07T04:28:54.920Z,69.28
2023-03-07T04:29:51.561Z,69.43
2023-03-07T04:30:49.904Z,69.51
2023-03-07T04:31:46.594Z,69.67
2023-03-07T04:32:43.224Z,69.61
2023-03-07T04:33:40.486Z,69.67
2023-03-07T04:34:37.118Z,69.56
2023-03-07T04:35:33.728Z,69.67
2023-03-07T04:36:30.545Z,69.58
2023-03-07T04:37:27.233Z,69.71
2023-03-07T04:38:23.820Z,69.33
2023-03-07T04:39:20.465Z,69.84
2023-03-07T04:40:17.146Z,69.83
2023-03-07T04:41:16.818Z,70.08
2023-03-07T04:42:13.394Z,69.97
2023-03-07T04:43:09.988Z,69.78
2023-03-07T04:44:06.637Z,69.68
2023-03-07T04:45:04.873Z,69.08
2023-03-07T04:46:02.112Z,68.99
2023-03-07T04:46:58.808Z,69.21
2023-03-07T04:47:55.376Z,69.55
2023-03-07T04:48:51.956Z,69.70
2023-03-07T04:49:48.507Z,69.67
2023-03-07T04:50:45.066Z,70.02
2023-03-07T04:51:43.969Z,70.48
2023-03-07T04:52:41.160Z,71.68
2023-03-07T04:53:37.875Z,71.45
2023-03-07T04:54:34.634Z,71.64
2023-03-07T04:55:31.596Z,71.02
2023-03-07T04:56:28.241Z,72.04
2023-03-07T04:57:24.854Z,72.21
2023-03-07T04:58:21.411Z,71.86
2023-03-07T04:59:19.340Z,71.60
2023-03-07T05:00:18.865Z,71.17
2023-03-07T05:01:15.524Z,71.31
2023-03-07T05:02:13.229Z,71.66
2023-03-07T05:03:12.110Z,73.45
2023-03-07T05:04:08.715Z,72.75
2023-03-07T05:05:06.442Z,71.78
2023-03-07T05:06:08.465Z,72.88
2023-03-07T05:07:05.260Z,73.01
2023-03-07T05:08:02.716Z,72.66
2023-03-07T05:08:59.352Z,72.77
2023-03-07T05:09:56.380Z,72.68
2023-03-07T05:10:53.086Z,72.76
2023-03-07T05:11:49.630Z,72.86
2023-03-07T05:12:46.247Z,72.71
2023-03-07T05:13:42.824Z,72.57
2023-03-07T05:14:39.462Z,71.91
2023-03-07T05:15:36.290Z,70.61
2023-03-07T05:16:33.636Z,70.24
2023-03-07T05:17:31.342Z,70.83
2023-03-07T05:18:28.208Z,70.43
2023-03-07T05:19:24.981Z,71.19
2023-03-07T05:20:23.572Z,70.63
2023-03-07T05:21:20.218Z,70.98
2023-03-07T05:22:16.788Z,70.51
2023-03-07T05:23:13.654Z,70.10
2023-03-07T05:24:10.783Z,70.13
2023-03-07T05:25:07.695Z,70.51
2023-03-07T05:26:04.442Z,70.56
2023-03-07T05:27:01.025Z,70.45
2023-03-07T05:27:57.630Z,70.24
2023-03-07T05:28:54.226Z,69.90
2023-03-07T05:29:50.801Z,70.24
2023-03-07T05:30:47.799Z,70.31
2023-03-07T05:31:44.393Z,70.30
2023-03-07T05:32:40.923Z,69.24
2023-03-07T05:33:37.522Z,68.67
2023-03-07T05:34:34.153Z,69.78
2023-03-07T05:35:30.869Z,69.05
2023-03-07T05:36:28.109Z,68.73
2023-03-07T05:37:24.734Z,68.90
2023-03-07T05:38:21.364Z,68.38
2023-03-07T05:39:17.972Z,68.89
2023-03-07T05:40:15.415Z,68.70
2023-03-07T05:41:12.933Z,68.80
2023-03-07T05:42:09.603Z,68.64
2023-03-07T05:43:06.509Z,68.73
2023-03-07T05:44:03.682Z,68.44
2023-03-07T05:45:00.270Z,67.73
2023-03-07T05:45:56.903Z,67.82
2023-03-07T05:46:53.515Z,67.59
2023-03-07T05:47:50.284Z,68.18
2023-03-07T05:48:47.223Z,68.35
2023-03-07T05:49:43.891Z,68.77
2023-03-07T05:50:42.075Z,68.34
2023-03-07T05:51:38.642Z,68.26
2023-03-07T05:52:35.362Z,68.59
2023-03-07T05:53:31.958Z,68.43
2023-03-07T05:54:28.539Z,68.46
2023-03-07T05:55:25.194Z,68.33
2023-03-07T05:56:21.753Z,68.55
2023-03-07T05:57:18.351Z,67.90
2023-03-07T05:58:15.012Z,67.99
2023-03-07T05:59:15.417Z,68.09
2023-03-07T06:00:12.563Z,68.03
2023-03-07T06:01:09.141Z,68.10
2023-03-07T06:02:05.725Z,67.45
2023-03-07T06:03:04.106Z,66.87
2023-03-07T06:04:00.734Z,67.05
2023-03-07T06:04:57.353Z,66.83
2023-03-07T06:05:53.984Z,66.50
2023-03-07T06:06:50.549Z,66.82
2023-03-07T06:07:47.174Z,66.67
2023-03-07T06:08:43.746Z,66.80
2023-03-07T06:09:40.379Z,67.01
2023-03-07T06:10:40.154Z,67.33
2023-03-07T06:11:36.777Z,66.94
2023-03-07T06:12:33.475Z,66.66
2023-03-07T06:13:31.242Z,67.23
2023-03-07T06:14:27.824Z,67.25
2023-03-07T06:15:24.966Z,67.03
2023-03-07T06:16:22.138Z,66.71
2023-03-07T06:17:18.747Z,66.19
2023-03-07T06:18:15.352Z,66.76
2023-03-07T06:19:12.157Z,66.86
2023-03-07T06:20:09.995Z,66.63
2023-03-07T06:21:08.622Z,66.29
2023-03-07T06:22:05.356Z,66.24
2023-03-07T06:23:02.029Z,66.98
2023-03-07T06:23:58.627Z,66.72
2023-03-07T06:24:55.154Z,66.91
2023-03-07T06:25:51.741Z,66.35
2023-03-07T06:26:48.292Z,66.39
2023-03-07T06:27:44.853Z,66.73
2023-03-07T06:28:42.673Z,66.56
2023-03-07T06:29:39.345Z,65.66
2023-03-07T06:30:36.514Z,65.80
2023-03-07T06:31:33.215Z,66.46
2023-03-07T06:32:31.000Z,66.26
2023-03-07T06:33:27.622Z,65.88
2023-03-07T06:34:24.244Z,65.80
2023-03-07T06:35:20.917Z,65.61
2023-03-07T06:36:19.053Z,65.55
2023-03-07T06:37:15.616Z,64.91
2023-03-07T06:38:13.999Z,65.42
2023-03-07T06:39:10.629Z,65.17
2023-03-07T06:40:09.536Z,65.56
2023-03-07T06:41:06.224Z,65.24
2023-03-07T06:42:02.789Z,64.82
2023-03-07T06:42:59.432Z,64.51
2023-03-07T06:43:56.069Z,64.91
2023-03-07T06:44:52.652Z,63.99
2023-03-07T06:45:49.281Z,63.77
2023-03-07T06:46:46.516Z,64.17
2023-03-07T06:47:43.067Z,64.60
2023-03-07T06:48:39.693Z,64.97
2023-03-07T06:49:36.275Z,64.18
2023-03-07T06:50:35.385Z,63.97
2023-03-07T06:51:32.239Z,65.09
2023-03-07T06:52:28.774Z,64.32
2023-03-07T06:53:25.332Z,64.23
2023-03-07T06:54:21.895Z,64.67
2023-03-07T06:55:19.408Z,64.52
2023-03-07T06:56:15.974Z,64.75
2023-03-07T06:57:12.597Z,64.51
2023-03-07T06:58:09.178Z,64.32
2023-03-07T06:59:05.845Z,64.31
2023-03-07T07:00:04.396Z,63.96
2023-03-07T07:01:01.267Z,63.80
2023-03-07T07:01:57.939Z,64.56
2023-03-07T07:02:55.203Z,64.84
2023-03-07T07:03:52.029Z,64.67
2023-03-07T07:04:48.628Z,64.75
2023-03-07T07:05:45.482Z,64.56
2023-03-07T07:06:42.183Z,64.46
2023-03-07T07:07:38.897Z,64.29
2023-03-07T07:08:35.498Z,64.26
2023-03-07T07:09:32.143Z,63.82
2023-03-07T07:10:29.739Z,63.50
2023-03-07T07:11:26.616Z,63.06
2023-03-07T07:12:23.540Z,62.58
2023-03-07T07:13:20.152Z,62.70
2023-03-07T07:14:16.687Z,63.14
2023-03-07T07:15:13.298Z,62.91
2023-03-07T07:16:09.997Z,63.51
2023-03-07T07:17:06.571Z,62.70
2023-03-07T07:18:07.034Z,63.24
2023-03-07T07:19:04.019Z,63.30
2023-03-07T07:20:00.655Z,63.58
2023-03-07T07:20:57.550Z,63.09
2023-03-07T07:21:54.187Z,62.88
2023-03-07T07:22:50.741Z,62.45
2023-03-07T07:23:47.399Z,62.05
2023-03-07T07:24:44.003Z,61.26
2023-03-07T07:25:40.594Z,61.64
2023-03-07T07:26:37.599Z,61.95
2023-03-07T07:27:34.315Z,61.97
2023-03-07T07:28:30.889Z,61.86
2023-03-07T07:29:27.586Z,61.38
2023-03-07T07:30:24.339Z,62.36
2023-03-07T07:31:21.103Z,62.31
2023-03-07T07:32:17.881Z,62.45
2023-03-07T07:33:14.642Z,61.05
2023-03-07T07:34:12.140Z,61.46
2023-03-07T07:35:09.531Z,61.70
2023-03-07T07:36:07.409Z,61.03
2023-03-07T07:37:04.210Z,61.79
2023-03-07T07:38:00.770Z,60.84
2023-03-07T07:38:57.339Z,60.96
2023-03-07T07:39:53.865Z,61.13
2023-03-07T07:40:50.440Z,60.49
2023-03-07T07:41:47.997Z,60.36
2023-03-07T07:42:44.608Z,60.88
2023-03-07T07:43:41.879Z,60.98
2023-03-07T07:44:38.549Z,61.15
2023-03-07T07:45:37.510Z,60.72
2023-03-07T07:46:34.205Z,60.92
2023-03-07T07:47:30.825Z,60.79
2023-03-07T07:48:27.362Z,60.68
2023-03-07T07:49:24.241Z,60.55
2023-03-07T07:50:22.073Z,60.93
2023-03-07T07:51:18.640Z,60.60
2023-03-07T07:52:15.197Z,60.72
2023-03-07T07:53:11.824Z,59.99
2023-03-07T07:54:09.510Z,59.38
2023-03-07T07:55:06.302Z,60.11
2023-03-07T07:56:02.850Z,59.15
2023-03-07T07:56:59.461Z,59.69
2023-03-07T07:57:56.144Z,59.72
2023-03-07T07:58:52.739Z,59.93
2023-03-07T07:59:49.298Z,59.92
2023-03-07T08:00:46.214Z,60.10
2023-03-07T08:01:43.475Z,59.80
2023-03-07T08:02:40.115Z,58.26
2023-03-07T08:03:36.809Z,58.39
2023-03-07T08:04:33.457Z,58.17
2023-03-07T08:05:30.116Z,58.31
2023-03-07T08:06:28.715Z,58.29
2023-03-07T08:07:25.308Z,58.23
2023-03-07T08:08:21.950Z,58.68
2023-03-07T08:09:18.698Z,58.73
2023-03-07T08:10:16.506Z,58.57
2023-03-07T08:11:13.187Z,58.04
2023-03-07T08:12:12.076Z,57.71
2023-03-07T08:13:11.642Z,57.45
2023-03-07T08:14:08.279Z,56.37
2023-03-07T08:15:05.270Z,56.73
2023-03-07T08:16:09.249Z,55.84
2023-03-07T08:17:06.131Z,55.65
2023-03-07T08:18:02.912Z,56.00
2023-03-07T08:19:00.635Z,56.44
2023-03-07T08:20:01.772Z,57.30
2023-03-07T08:20:59.992Z,56.77
2023-03-07T08:21:56.679Z,57.37
2023-03-07T08:22:53.309Z,56.77
2023-03-07T08:23:50.041Z,57.42
2023-03-07T08:24:47.655Z,57.24
2023-03-07T08:25:44.945Z,57.96
2023-03-07T08:26:41.567Z,57.22
2023-03-07T08:27:38.157Z,56.96
2023-03-07T08:28:34.821Z,56.18
2023-03-07T08:29:33.085Z,55.54
2023-03-07T08:30:32.067Z,55.58
2023-03-07T08:31:28.717Z,56.59
2023-03-07T08:32:25.577Z,55.70
2023-03-07T08:33:22.264Z,55.81
2023-03-07T08:34:19.094Z,55.95
2023-03-07T08:35:15.721Z,55.76
2023-03-07T08:36:12.408Z,55.03
2023-03-07T08:37:08.953Z,54.86
2023-03-07T08:38:05.563Z,54.50
2023-03-07T08:39:02.282Z,54.74
2023-03-07T08:39:58.846Z,54.76
2023-03-07T08:41:03.958Z,54.88
2023-03-07T08:42:00.907Z,55.31
2023-03-07T08:42:59.115Z,54.67
2023-03-07T08:43:55.668Z,54.84
2023-03-07T08:44:52.269Z,53.76
2023-03-07T08:45:51.148Z,53.48
2023-03-07T08:46:47.822Z,54.53
2023-03-07T08:47:44.421Z,54.14
2023-03-07T08:48:41.091Z,54.07
2023-03-07T08:49:37.852Z,53.32
2023-03-07T08:50:34.444Z,54.63
2023-03-07T08:51:31.013Z,55.00
2023-03-07T08:52:27.632Z,55.97
2023-03-07T08:53:24.299Z,54.90
2023-03-07T08:54:20.855Z,53.73
2023-03-07T08:55:17.968Z,53.47
2023-03-07T08:56:17.341Z,53.68
2023-03-07T08:57:14.021Z,52.56
2023-03-07T08:58:11.230Z,52.94
2023-03-07T08:59:07.807Z,52.90
2023-03-07T09:00:08.181Z,52.79
2023-03-07T09:01:06.234Z,53.63
2023-03-07T09:02:03.050Z,53.78
2023-03-07T09:03:01.576Z,55.03
2023-03-07T09:03:58.223Z,54.67
2023-03-07T09:04:54.848Z,54.60
2023-03-07T09:05:51.451Z,54.65
2023-03-07T09:06:48.096Z,53.61
2023-03-07T09:07:44.738Z,52.33
2023-03-07T09:08:41.380Z,51.26
2023-03-07T09:09:37.951Z,51.94
2023-03-07T09:10:35.547Z,50.74
2023-03-07T09:11:32.348Z,51.20
2023-03-07T09:12:28.959Z,51.59
2023-03-07T09:13:25.596Z,52.57
2023-03-07T09:14:22.152Z,52.37
2023-03-07T09:15:18.795Z,52.12
2023-03-07T09:16:15.492Z,50.58
2023-03-07T09:17:12.156Z,50.68
2023-03-07T09:18:08.806Z,51.72
2023-03-07T09:19:05.809Z,52.08
2023-03-07T09:20:04.456Z,50.16
2023-03-07T09:21:02.219Z,51.27
2023-03-07T09:21:58.906Z,49.58
2023-03-07T09:22:55.505Z,49.81
2023-03-07T09:23:52.052Z,50.76
2023-03-07T09:24:48.678Z,50.39
2023-03-07T09:25:45.319Z,49.64
2023-03-07T09:26:42.484Z,50.14
2023-03-07T09:27:39.263Z,50.92
2023-03-07T09:28:35.900Z,50.50
2023-03-07T09:29:32.521Z,49.67
2023-03-07T09:30:29.120Z,50.19
2023-03-07T09:31:25.859Z,50.04
2023-03-07T09:32:22.581Z,49.92
2023-03-07T09:33:19.189Z,50.09
2023-03-07T09:34:16.004Z,50.80
2023-03-07T09:35:12.780Z,50.03
2023-03-07T09:36:12.070Z,49.82
2023-03-07T09:37:08.735Z,49.24
2023-03-07T09:38:05.342Z,47.96
2023-03-07T09:39:01.887Z,48.23
2023-03-07T09:39:58.452Z,48.58
2023-03-07T09:40:57.180Z,47.67
2023-03-07T09:42:18.546Z,48.51
2023-03-07T09:43:22.434Z,49.29
2023-03-07T09:44:25.369Z,48.18
2023-03-07T09:45:47.176Z,47.33
2023-03-07T09:47:31.574Z,47.58
2023-03-07T09:48:49.656Z,48.64
2023-03-07T09:49:53.496Z,48.52
2023-03-07T09:51:00.535Z,47.84
2023-03-07T09:52:00.707Z,48.18
2023-03-07T09:53:01.598Z,47.04
2023-03-07T09:54:03.300Z,49.09
2023-03-07T09:55:03.611Z,48.11
2023-03-07T09:56:03.776Z,49.00
2023-03-07T09:57:03.595Z,48.60
2023-03-07T09:58:07.390Z,48.10
2023-03-07T09:59:23.727Z,49.21
2023-03-07T10:00:31.383Z,48.34
2023-03-07T10:01:31.855Z,47.83
2023-03-07T10:02:34.711Z,48.00
2023-03-07T10:03:41.742Z,48.59
2023-03-07T10:05:10.697Z,48.04
2023-03-07T10:06:16.282Z,46.40
2023-03-07T10:07:16.092Z,45.96
2023-03-07T10:08:20.588Z,45.57
2023-03-07T10:09:22.388Z,46.76
2023-03-07T10:10:24.231Z,47.63
2023-03-07T10:11:59.419Z,45.73
2023-03-07T10:13:28.084Z,47.21
2023-03-07T10:14:45.784Z,46.05
2023-03-07T10:15:55.845Z,45.89
2023-03-07T10:17:04.707Z,45.58
2023-03-07T10:18:37.974Z,46.20
2023-03-07T10:19:48.898Z,47.73
2023-03-07T10:20:57.879Z,47.18
2023-03-07T10:22:03.270Z,45.59
2023-03-07T10:23:18.631Z,44.66
2023-03-07T10:24:33.774Z,45.18
2023-03-07T10:25:52.632Z,45.05
2023-03-07T10:27:07.830Z,45.13
2023-03-07T10:28:21.952Z,45.61
2023-03-07T10:29:22.431Z,44.63
2023-03-07T10:30:21.087Z,44.39
2023-03-07T10:31:20.536Z,45.65
2023-03-07T10:32:36.928Z,44.50
2023-03-07T10:33:34.161Z,43.90
2023-03-07T10:34:32.728Z,43.45
2023-03-07T10:35:40.642Z,43.82
2023-03-07T10:36:57.391Z,42.90
2023-03-07T10:38:05.217Z,42.97
2023-03-07T10:39:16.105Z,41.97
2023-03-07T10:40:21.721Z,42.53
2023-03-07T10:41:21.540Z,42.18
2023-03-07T10:42:20.971Z,42.45
2023-03-07T10:43:25.201Z,42.45
2023-03-07T10:44:22.569Z,42.63
2023-03-07T10:45:19.501Z,43.62
2023-03-07T10:46:25.866Z,43.31
2023-03-07T10:47:28.346Z,42.71
2023-03-07T10:48:26.103Z,43.42
2023-03-07T10:49:29.522Z,43.38
2023-03-07T10:50:37.819Z,43.42
2023-03-07T10:51:52.853Z,42.89
2023-03-07T10:52:54.153Z,41.29
2023-03-07T10:53:50.950Z,41.66
2023-03-07T10:54:47.528Z,41.96
2023-03-07T10:55:45.172Z,41.97
2023-03-07T10:56:47.676Z,42.80
2023-03-07T10:57:44.238Z,43.70
2023-03-07T10:58:59.803Z,43.92
2023-03-07T11:00:13.772Z,43.85
2023-03-07T11:01:20.585Z,43.54
2023-03-07T11:02:29.051Z,45.06
2023-03-07T11:03:54.792Z,44.54
2023-03-07T11:04:52.317Z,44.24
2023-03-07T11:05:49.601Z,43.71
2023-03-07T11:06:54.910Z,44.00
2023-03-07T11:07:51.512Z,44.35
2023-03-07T11:08:48.068Z,44.61
2023-03-07T11:09:48.218Z,44.99
2023-03-07T11:10:45.031Z,44.39
2023-03-07T11:11:48.008Z,44.31
2023-03-07T11:12:46.273Z,43.74
2023-03-07T11:13:42.903Z,44.81
2023-03-07T11:14:49.988Z,44.97
2023-03-07T11:15:47.209Z,44.75
2023-03-07T11:16:59.865Z,44.88
2023-03-07T11:17:56.477Z,44.92
2023-03-07T11:18:53.141Z,44.69
2023-03-07T11:19:57.763Z,44.54
2023-03-07T11:20:54.628Z,43.84
2023-03-07T11:21:55.586Z,44.18
2023-03-07T11:23:17.022Z,44.36
2023-03-07T11:24:28.581Z,44.29
2023-03-07T11:25:28.710Z,43.19
2023-03-07T11:26:25.343Z,41.97
2023-03-07T11:27:32.774Z,41.18
2023-03-07T11:28:34.810Z,40.58
2023-03-07T11:29:34.941Z,41.67
2023-03-07T11:30:34.330Z,41.20
2023-03-07T11:31:56.988Z,42.29
2023-03-07T11:33:49.488Z,42.20
2023-03-07T11:35:02.945Z,41.56
2023-03-07T11:36:08.338Z,41.98
2023-03-07T11:37:31.084Z,42.61
2023-03-07T11:38:36.802Z,43.11
2023-03-07T11:40:03.860Z,44.10
2023-03-07T11:41:09.695Z,42.56
2023-03-07T11:42:30.344Z,42.57
2023-03-07T11:43:40.721Z,42.44
2023-03-07T11:44:46.563Z,42.42
2023-03-07T11:46:10.457Z,43.17
2023-03-07T11:47:22.842Z,42.62
2023-03-07T11:48:56.939Z,41.44
2023-03-07T11:49:59.359Z,41.82
2023-03-07T11:50:59.950Z,41.94
2023-03-07T11:52:41.376Z,43.01
2023-03-07T11:53:50.074Z,42.11
2023-03-07T11:54:52.708Z,40.76
2023-03-07T11:55:52.512Z,39.45
2023-03-07T11:56:53.210Z,39.17
2023-03-07T11:58:17.485Z,40.14
2023-03-07T11:59:39.800Z,40.33
2023-03-07T12:00:56.548Z,39.74
2023-03-07T12:01:55.499Z,40.13
2023-03-07T12:03:03.981Z,41.65
2023-03-07T12:04:12.040Z,41.09
2023-03-07T12:05:56.051Z,40.55
2023-03-07T12:07:32.052Z,39.27
2023-03-07T12:08:35.239Z,40.26
2023-03-07T12:09:59.926Z,40.58
2023-03-07T12:11:08.386Z,41.11
2023-03-07T12:12:23.689Z,40.96
2023-03-07T12:13:40.519Z,40.48
2023-03-07T12:14:46.792Z,39.79
2023-03-07T12:15:50.760Z,40.25
2023-03-07T12:17:25.627Z,38.75
2023-03-07T12:18:28.123Z,40.67
2023-03-07T12:19:52.968Z,40.73
2023-03-07T12:20:58.534Z,39.46
2023-03-07T12:22:13.290Z,39.87
2023-03-07T12:23:24.943Z,39.08
2023-03-07T12:24:26.744Z,39.96
2023-03-07T12:25:46.069Z,39.50
2023-03-07T12:26:53.637Z,39.58
2023-03-07T12:28:00.988Z,39.94
2023-03-07T12:29:11.268Z,40.11
2023-03-07T12:30:18.809Z,38.92
2023-03-07T12:31:23.017Z,39.62
2023-03-07T12:32:25.673Z,39.65
2023-03-07T12:33:54.612Z,39.71
2023-03-07T12:35:20.796Z,38.56
2023-03-07T12:36:36.238Z,38.33
2023-03-07T12:37:49.107Z,36.99
2023-03-07T12:39:01.080Z,37.68
2023-03-07T12:40:20.358Z,36.58
2023-03-07T12:41:24.359Z,37.78
2023-03-07T12:42:48.893Z,37.73
2023-03-07T12:43:51.440Z,37.59
2023-03-07T12:44:52.809Z,36.84
2023-03-07T12:46:04.030Z,37.04
2023-03-07T12:47:10.298Z,37.00
2023-03-07T12:48:23.541Z,36.79
2023-03-07T12:49:50.027Z,37.30
2023-03-07T12:51:04.487Z,36.39
2023-03-07T12:52:06.012Z,36.30
2023-03-07T12:53:06.309Z,35.80
2023-03-07T12:54:27.874Z,35.80
2023-03-07T12:55:34.798Z,35.39